createdAt,value
2018-03-06T00:00:06.672Z,98753.02
2018-03-06T00:02:32.875Z,98753.98
2018-03-06T00:04:59.104Z,98749.72
2018-03-06T00:07:25.305Z,98757.56
2018-03-06T00:09:51.499Z,98755.41
2018-03-06T00:12:17.683Z,98753.31
2018-03-06T00:14:43.878Z,98749.00
2018-03-06T00:17:10.079Z,98751.67
2018-03-06T00:19:36.256Z,98749.97
2018-03-06T00:22:02.446Z,98749.05
2018-03-06T00:24:28.962Z,98742.59
2018-03-06T00:26:55.192Z,98755.22
2018-03-06T00:29:21.380Z,98759.14
2018-03-06T00:31:47.566Z,98747.88
2018-03-06T00:34:13.778Z,98746.16
2018-03-06T00:36:40.063Z,98747.05
2018-03-06T00:39:06.314Z,98747.09
2018-03-06T00:41:32.532Z,98744.92
2018-03-06T00:43:58.706Z,98745.42
2018-03-06T00:46:25.617Z,98747.27
2018-03-06T00:48:51.816Z,98747.20
2018-03-06T00:51:18.015Z,98743.81
2018-03-06T00:53:44.262Z,98749.09
2018-03-06T00:56:10.516Z,98748.30
2018-03-06T00:58:36.718Z,98747.95
2018-03-06T01:01:02.962Z,98753.70
2018-03-06T01:03:29.132Z,98744.59
2018-03-06T01:05:55.377Z,98747.22
2018-03-06T01:08:21.728Z,98749.03
2018-03-06T01:10:47.877Z,98754.17
2018-03-06T01:13:14.051Z,98749.83
2018-03-06T01:15:40.300Z,98746.33
2018-03-06T01:18:06.493Z,98739.84
2018-03-06T01:20:33.086Z,98737.27
2018-03-06T01:22:59.362Z,98744.64
2018-03-06T01:25:25.618Z,98735.98
2018-03-06T01:27:51.790Z,98740.75
2018-03-06T01:30:18.441Z,98740.31
2018-03-06T01:32:45.566Z,98742.88
2018-03-06T01:35:11.787Z,98744.16
2018-03-06T01:37:38.021Z,98745.00
2018-03-06T01:40:04.230Z,98742.81
2018-03-06T01:42:30.456Z,98745.36
2018-03-06T01:44:56.689Z,98736.64
2018-03-06T01:47:22.937Z,98732.67
2018-03-06T01:49:49.763Z,98725.23
2018-03-06T01:52:16.009Z,98727.78
2018-03-06T01:54:42.278Z,98721.95
2018-03-06T01:57:08.492Z,98721.00
2018-03-06T01:59:34.705Z,98716.52
2018-03-06T02:02:00.955Z,98720.35
2018-03-06T02:04:27.109Z,98716.79
2018-03-06T02:06:53.299Z,98708.86
2018-03-06T02:09:20.341Z,98710.55
2018-03-06T02:11:46.607Z,98709.62
2018-03-06T02:14:13.702Z,98698.25
2018-03-06T02:16:39.947Z,98709.42
2018-03-06T02:19:06.254Z,98698.95
2018-03-06T02:21:32.479Z,98699.80
2018-03-06T02:23:58.712Z,98695.38
2018-03-06T02:26:24.971Z,98693.61
2018-03-06T02:28:51.269Z,98691.38
2018-03-06T02:31:17.479Z,98688.23
2018-03-06T02:33:43.757Z,98689.55
2018-03-06T02:36:10.540Z,98685.61
2018-03-06T02:38:36.731Z,98683.45
2018-03-06T02:41:02.969Z,98685.16
2018-03-06T02:43:29.182Z,98678.18
2018-03-06T02:46:07.715Z,98673.80
2018-03-06T02:48:33.899Z,98675.11
2018-03-06T02:51:00.154Z,98676.35
2018-03-06T02:53:26.388Z,98680.67
2018-03-06T02:55:52.695Z,98680.13
2018-03-06T02:58:18.892Z,98678.82
2018-03-06T03:00:45.199Z,98680.97
2018-03-06T03:03:11.496Z,98677.48
2018-03-06T03:05:37.803Z,98674.50
2018-03-06T03:08:04.041Z,98673.25
2018-03-06T03:10:30.273Z,98671.13
2018-03-06T03:12:56.464Z,98677.37
2018-03-06T03:15:22.682Z,98669.63
2018-03-06T03:17:48.910Z,98673.59
2018-03-06T03:20:15.161Z,98670.64
2018-03-06T03:22:41.357Z,98667.70
2018-03-06T03:25:07.585Z,98663.94
2018-03-06T03:27:33.861Z,98661.39
2018-03-06T03:30:00.187Z,98660.58
2018-03-06T03:32:26.379Z,98659.30
2018-03-06T03:34:52.664Z,98657.59
2018-03-06T03:37:18.890Z,98665.87
2018-03-06T03:39:45.097Z,98664.52
2018-03-06T03:42:11.324Z,98676.61
2018-03-06T03:44:37.596Z,98674.37
2018-03-06T03:47:04.611Z,98673.41
2018-03-06T03:49:30.818Z,98678.48
2018-03-06T03:51:57.077Z,98682.33
2018-03-06T03:54:23.338Z,98679.22
2018-03-06T03:56:49.586Z,98678.80
2018-03-06T03:59:15.779Z,98685.44
2018-03-06T04:01:41.980Z,98681.19
2018-03-06T04:04:08.176Z,98679.16
2018-03-06T04:06:34.381Z,98676.25
2018-03-06T04:09:00.596Z,98681.18
2018-03-06T04:11:26.768Z,98677.88
2018-03-06T04:13:52.965Z,98678.44
2018-03-06T04:16:19.212Z,98675.13
2018-03-06T04:18:45.426Z,98675.30
2018-03-06T04:21:11.606Z,98681.49
2018-03-06T04:23:37.877Z,98682.48
2018-03-06T04:26:04.168Z,98685.16
2018-03-06T04:28:30.373Z,98686.58
2018-03-06T04:30:56.584Z,98696.66
2018-03-06T04:33:22.802Z,98691.13
2018-03-06T04:35:49.540Z,98692.47
2018-03-06T04:38:15.758Z,98695.59
2018-03-06T04:40:42.014Z,98696.50
2018-03-06T04:43:08.212Z,98691.37
2018-03-06T04:45:34.432Z,98695.28
2018-03-06T04:48:00.715Z,98700.88
2018-03-06T04:50:26.862Z,98696.97
2018-03-06T04:52:53.061Z,98699.96
2018-03-06T04:55:19.350Z,98699.92
2018-03-06T04:57:45.573Z,98708.10
2018-03-06T05:00:11.784Z,98705.02
2018-03-06T05:02:38.023Z,98708.85
2018-03-06T05:05:04.228Z,98705.37
2018-03-06T05:07:30.482Z,98704.87
2018-03-06T05:09:56.637Z,98710.05
2018-03-06T05:12:22.800Z,98702.63
2018-03-06T05:14:49.033Z,98704.77
2018-03-06T05:17:15.282Z,98703.83
2018-03-06T05:19:41.524Z,98696.83
2018-03-06T05:22:07.728Z,98705.02
2018-03-06T05:24:33.974Z,98708.47
2018-03-06T05:27:00.258Z,98707.16
2018-03-06T05:29:26.492Z,98708.86
2018-03-06T05:31:52.731Z,98719.28
2018-03-06T05:34:18.953Z,98707.98
2018-03-06T05:36:46.093Z,98714.42
2018-03-06T05:39:12.313Z,98714.86
2018-03-06T05:41:38.603Z,98715.72
2018-03-06T05:44:04.848Z,98729.22
2018-03-06T05:46:31.092Z,98719.23
2018-03-06T05:48:57.313Z,98732.25
2018-03-06T05:51:23.543Z,98727.07
2018-03-06T05:53:49.766Z,98735.39
2018-03-06T05:56:16.061Z,98728.98
2018-03-06T05:58:42.269Z,98734.25
2018-03-06T06:01:08.471Z,98740.44
2018-03-06T06:03:34.708Z,98740.56
2018-03-06T06:06:00.949Z,98738.02
2018-03-06T06:08:27.196Z,98744.14
2018-03-06T06:10:53.477Z,98745.97
2018-03-06T06:13:21.377Z,98742.54
2018-03-06T06:15:47.660Z,98750.39
2018-03-06T06:18:13.874Z,98749.13
2018-03-06T06:20:40.032Z,98750.49
2018-03-06T06:23:06.236Z,98754.90
2018-03-06T06:25:32.482Z,98751.46
2018-03-06T06:27:58.712Z,98749.36
2018-03-06T06:30:24.896Z,98754.59
2018-03-06T06:32:51.151Z,98758.94
2018-03-06T06:35:17.318Z,98753.30
2018-03-06T06:37:43.543Z,98761.07
2018-03-06T06:40:09.756Z,98760.15
2018-03-06T06:42:35.962Z,98753.13
2018-03-06T06:45:02.155Z,98756.14
2018-03-06T06:47:28.388Z,98759.19
2018-03-06T06:49:54.553Z,98762.66
2018-03-06T06:52:20.730Z,98757.05
2018-03-06T06:54:46.953Z,98760.98
2018-03-06T06:57:13.137Z,98761.03
2018-03-06T06:59:39.630Z,98771.44
2018-03-06T07:02:05.824Z,98776.17
2018-03-06T07:04:31.979Z,98776.90
2018-03-06T07:06:58.224Z,98776.36
2018-03-06T07:09:24.438Z,98784.05
2018-03-06T07:11:50.667Z,98783.02
2018-03-06T07:14:16.920Z,98779.38
2018-03-06T07:16:43.154Z,98787.89
2018-03-06T07:19:09.282Z,98787.70
2018-03-06T07:21:35.451Z,98790.16
2018-03-06T07:24:02.644Z,98792.66
2018-03-06T07:26:28.851Z,98797.70
2018-03-06T07:28:54.974Z,98806.21
2018-03-06T07:31:21.147Z,98794.75
2018-03-06T07:33:47.264Z,98798.55
2018-03-06T07:36:13.508Z,98810.58
2018-03-06T07:38:39.637Z,98805.23
2018-03-06T07:41:05.806Z,98809.01
2018-03-06T07:43:31.973Z,98808.40
2018-03-06T07:45:58.104Z,98813.02
2018-03-06T07:48:24.330Z,98803.70
2018-03-06T07:50:50.520Z,98806.58
2018-03-06T07:53:16.694Z,98812.09
2018-03-06T07:55:42.893Z,98806.30
2018-03-06T07:58:09.111Z,98818.34
2018-03-06T08:00:35.313Z,98815.14
2018-03-06T08:03:01.523Z,98814.14
2018-03-06T08:05:27.702Z,98818.34
2018-03-06T08:07:53.948Z,98824.74
2018-03-06T08:10:20.089Z,98824.12
2018-03-06T08:12:46.249Z,98824.88
2018-03-06T08:15:12.444Z,98820.84
2018-03-06T08:17:38.656Z,98829.86
2018-03-06T08:20:04.811Z,98833.61
2018-03-06T08:22:31.003Z,98832.94
2018-03-06T08:24:57.255Z,98833.48
2018-03-06T08:27:23.513Z,98840.44
2018-03-06T08:29:49.736Z,98834.59
2018-03-06T08:32:15.906Z,98836.01
2018-03-06T08:34:42.133Z,98827.73
2018-03-06T08:37:09.046Z,98829.05
2018-03-06T08:39:35.231Z,98832.95
2018-03-06T08:42:01.353Z,98842.95
2018-03-06T08:44:27.456Z,98840.50
2018-03-06T08:46:53.613Z,98836.61
2018-03-06T08:49:19.748Z,98839.80
2018-03-06T08:51:45.863Z,98828.81
2018-03-06T08:54:12.020Z,98829.91
2018-03-06T08:56:38.226Z,98826.85
2018-03-06T08:59:04.365Z,98830.21
2018-03-06T09:01:30.470Z,98832.88
2018-03-06T09:03:56.615Z,98833.48
2018-03-06T09:06:22.728Z,98827.46
2018-03-06T09:08:48.902Z,98832.65
2018-03-06T09:11:15.004Z,98841.13
2018-03-06T09:13:41.141Z,98842.27
2018-03-06T09:16:07.263Z,98836.42
2018-03-06T09:18:33.670Z,98845.58
2018-03-06T09:20:59.901Z,98838.30
2018-03-06T09:23:26.077Z,98844.45
2018-03-06T09:25:52.218Z,98845.42
2018-03-06T09:28:18.452Z,98850.63
2018-03-06T09:30:44.562Z,98849.85
2018-03-06T09:33:10.679Z,98845.96
2018-03-06T09:35:36.814Z,98847.89
2018-03-06T09:38:02.994Z,98846.66
2018-03-06T09:40:29.080Z,98850.02
2018-03-06T09:42:55.209Z,98841.08
2018-03-06T09:45:21.341Z,98846.68
2018-03-06T09:47:47.497Z,98847.89
2018-03-06T09:50:13.579Z,98853.25
2018-03-06T09:52:39.683Z,98854.54
2018-03-06T09:55:05.880Z,98849.53
2018-03-06T09:57:32.061Z,98853.14
2018-03-06T09:59:58.165Z,98851.50
2018-03-06T10:02:24.323Z,98853.38
2018-03-06T10:04:50.436Z,98851.99
2018-03-06T10:07:16.700Z,98853.58
2018-03-06T10:09:42.826Z,98855.15
2018-03-06T10:12:08.943Z,98852.58
2018-03-06T10:14:35.082Z,98850.41
2018-03-06T10:17:01.258Z,98850.91
2018-03-06T10:19:27.363Z,98855.20
2018-03-06T10:21:53.455Z,98852.39
2018-03-06T10:24:19.735Z,98845.80
2018-03-06T10:26:45.890Z,98852.14
2018-03-06T10:29:11.991Z,98851.23
2018-03-06T10:31:38.096Z,98855.83
2018-03-06T10:34:04.229Z,98856.00
2018-03-06T10:36:30.382Z,98855.77
2018-03-06T10:38:56.566Z,98860.41
2018-03-06T10:41:22.697Z,98856.98
2018-03-06T10:43:48.842Z,98863.88
2018-03-06T10:46:15.976Z,98862.48
2018-03-06T10:48:42.184Z,98862.30
2018-03-06T10:51:08.317Z,98865.90
2018-03-06T10:53:34.456Z,98863.47
2018-03-06T10:56:00.590Z,98859.87
2018-03-06T10:58:26.816Z,98853.55
2018-03-06T11:00:53.884Z,98859.13
2018-03-06T11:03:21.858Z,98865.66
2018-03-06T11:05:48.004Z,98872.52
2018-03-06T11:08:14.162Z,98873.38
2018-03-06T11:10:40.268Z,98869.11
2018-03-06T11:13:06.405Z,98876.61
2018-03-06T11:15:32.495Z,98869.66
2018-03-06T11:17:58.666Z,98869.88
2018-03-06T11:20:24.778Z,98869.86
2018-03-06T11:22:50.887Z,98870.54
2018-03-06T11:25:17.059Z,98868.28
2018-03-06T11:27:43.221Z,98870.61
2018-03-06T11:30:09.334Z,98872.40
2018-03-06T11:32:35.481Z,98875.59
2018-03-06T11:35:01.574Z,98868.89
2018-03-06T11:37:27.762Z,98871.77
2018-03-06T11:39:53.972Z,98872.15
2018-03-06T11:42:20.133Z,98867.14
2018-03-06T11:44:46.273Z,98868.77
2018-03-06T11:47:12.504Z,98866.83
2018-03-06T11:49:38.625Z,98868.08
2018-03-06T11:52:05.149Z,98864.00
2018-03-06T11:54:31.387Z,98866.53
2018-03-06T11:56:57.573Z,98860.98
2018-03-06T11:59:23.832Z,98860.39
2018-03-06T12:01:50.011Z,98861.07
2018-03-06T12:04:16.196Z,98858.60
2018-03-06T12:06:42.376Z,98853.50
2018-03-06T12:09:08.655Z,98860.02
2018-03-06T12:11:34.812Z,98858.36
2018-03-06T12:14:01.028Z,98855.22
2018-03-06T12:16:27.219Z,98849.50
2018-03-06T12:18:53.435Z,98861.82
2018-03-06T12:21:19.618Z,98854.93
2018-03-06T12:23:45.814Z,98847.47
2018-03-06T12:26:12.027Z,98843.20
2018-03-06T12:28:38.252Z,98846.16
2018-03-06T12:31:04.445Z,98848.80
2018-03-06T12:33:30.625Z,98839.19
2018-03-06T12:35:56.873Z,98842.94
2018-03-06T12:38:23.069Z,98844.94
2018-03-06T12:40:49.234Z,98847.94
2018-03-06T12:43:15.378Z,98845.85
2018-03-06T12:45:41.680Z,98847.80
2018-03-06T12:48:07.892Z,98851.39
2018-03-06T12:50:34.071Z,98850.44
2018-03-06T12:53:00.541Z,98848.78
2018-03-06T12:55:26.786Z,98857.36
2018-03-06T12:57:52.971Z,98854.66
2018-03-06T13:00:19.123Z,98858.45
2018-03-06T13:02:45.313Z,98853.77
2018-03-06T13:05:11.485Z,98854.30
2018-03-06T13:07:37.671Z,98854.21
2018-03-06T13:10:03.877Z,98857.55
2018-03-06T13:12:30.042Z,98863.13
2018-03-06T13:14:56.228Z,98863.06
2018-03-06T13:17:22.480Z,98861.59
2018-03-06T13:19:48.700Z,98856.30
2018-03-06T13:22:14.904Z,98847.77
2018-03-06T13:24:41.105Z,98854.52
2018-03-06T13:27:07.268Z,98853.79
2018-03-06T13:29:33.523Z,98858.64
2018-03-06T13:31:59.789Z,98854.66
2018-03-06T13:34:25.933Z,98857.64
2018-03-06T13:36:52.141Z,98858.30
2018-03-06T13:39:18.407Z,98858.45
2018-03-06T13:41:44.593Z,98854.47
2018-03-06T13:44:10.831Z,98852.13
2018-03-06T13:46:37.000Z,98850.66
2018-03-06T13:49:03.237Z,98861.52
2018-03-06T13:51:29.479Z,98857.61
2018-03-06T13:53:56.205Z,98849.84
2018-03-06T13:56:22.421Z,98857.36
2018-03-06T13:58:48.669Z,98852.75
2018-03-06T14:01:14.855Z,98854.69
2018-03-06T14:03:41.011Z,98847.47
2018-03-06T14:06:07.205Z,98849.00
2018-03-06T14:08:33.449Z,98849.95
2018-03-06T14:10:59.648Z,98853.29
2018-03-06T14:13:25.843Z,98852.72
2018-03-06T14:15:52.896Z,98852.66
2018-03-06T14:18:19.128Z,98853.03
2018-03-06T14:20:45.748Z,98853.33
2018-03-06T14:23:11.903Z,98854.31
2018-03-06T14:25:38.168Z,98855.94
2018-03-06T14:28:04.450Z,98856.55
2018-03-06T14:30:30.615Z,98862.05
2018-03-06T14:32:56.840Z,98855.53
2018-03-06T14:35:23.040Z,98858.67
2018-03-06T14:37:49.308Z,98861.37
2018-03-06T14:40:15.441Z,98859.20
2018-03-06T14:42:41.609Z,98854.78
2018-03-06T14:45:07.766Z,98857.38
2018-03-06T14:47:33.931Z,98854.34
2018-03-06T14:50:00.512Z,98854.72
2018-03-06T14:52:26.682Z,98853.94
2018-03-06T14:54:52.868Z,98855.25
2018-03-06T14:57:19.060Z,98848.67
2018-03-06T14:59:45.256Z,98851.41
2018-03-06T15:02:11.437Z,98855.35
2018-03-06T15:04:37.644Z,98851.26
2018-03-06T15:07:03.823Z,98853.70
2018-03-06T15:09:30.045Z,98854.03
2018-03-06T15:11:56.303Z,98853.84
2018-03-06T15:14:22.467Z,98856.89
2018-03-06T15:16:48.623Z,98853.47
2018-03-06T15:19:14.932Z,98856.23
2018-03-06T15:21:41.090Z,98852.41
2018-03-06T15:24:07.355Z,98854.51
2018-03-06T15:26:40.360Z,98858.45
2018-03-06T15:29:06.565Z,98851.59
2018-03-06T15:31:32.784Z,98856.92
2018-03-06T15:33:59.088Z,98851.75
2018-03-06T15:36:25.261Z,98855.22
2018-03-06T15:38:51.506Z,98846.98
2018-03-06T15:41:17.764Z,98856.57
2018-03-06T15:43:43.936Z,98853.00
2018-03-06T15:46:10.130Z,98854.44
2018-03-06T15:48:36.360Z,98856.20
2018-03-06T15:51:02.560Z,98848.77
2018-03-06T15:53:29.610Z,98855.75
2018-03-06T15:55:55.825Z,98854.50
2018-03-06T15:58:22.050Z,98858.97
2018-03-06T16:00:48.230Z,98853.37
2018-03-06T16:03:14.480Z,98855.83
2018-03-06T16:05:40.700Z,98863.44
2018-03-06T16:08:06.949Z,98863.73
2018-03-06T16:10:33.133Z,98865.52
2018-03-06T16:12:59.357Z,98870.02
2018-03-06T16:15:25.652Z,98868.85
2018-03-06T16:17:51.847Z,98864.56
2018-03-06T16:20:18.127Z,98866.05
2018-03-06T16:22:44.345Z,98868.33
2018-03-06T16:25:10.557Z,98866.25
2018-03-06T16:27:36.876Z,98863.86
2018-03-06T16:30:03.146Z,98869.14
2018-03-06T16:32:29.382Z,98862.30
2018-03-06T16:34:55.624Z,98869.80
2018-03-06T16:37:21.817Z,98873.02
2018-03-06T16:39:48.121Z,98868.84
2018-03-06T16:42:14.399Z,98880.42
2018-03-06T16:44:40.595Z,98881.46
2018-03-06T16:47:06.776Z,98878.97
2018-03-06T16:49:33.275Z,98879.98
2018-03-06T16:51:59.452Z,98880.94
2018-03-06T16:54:25.731Z,98879.46
2018-03-06T16:56:51.959Z,98886.11
2018-03-06T16:59:18.260Z,98882.34
2018-03-06T17:01:44.478Z,98886.79
2018-03-06T17:04:10.670Z,98886.02
2018-03-06T17:06:36.927Z,98880.95
2018-03-06T17:09:03.522Z,98888.45
2018-03-06T17:11:29.698Z,98892.95
2018-03-06T17:13:55.860Z,98896.11
2018-03-06T17:16:22.120Z,98895.33
2018-03-06T17:18:48.436Z,98898.86
2018-03-06T17:21:14.612Z,98901.98
2018-03-06T17:23:40.845Z,98903.37
2018-03-06T17:26:07.616Z,98902.56
2018-03-06T17:28:33.875Z,98901.28
2018-03-06T17:31:00.051Z,98901.02
2018-03-06T17:33:26.250Z,98907.77
2018-03-06T17:35:52.515Z,98913.22
2018-03-06T17:38:18.668Z,98907.68
2018-03-06T17:40:44.931Z,98902.17
2018-03-06T17:43:11.118Z,98905.48
2018-03-06T17:45:37.665Z,98910.53
2018-03-06T17:48:03.947Z,98919.28
2018-03-06T17:50:30.184Z,98918.13
2018-03-06T17:52:56.335Z,98918.67
2018-03-06T17:55:22.596Z,98922.75
2018-03-06T17:57:48.879Z,98913.23
2018-03-06T18:00:15.347Z,98923.85
2018-03-06T18:02:41.551Z,98919.27
2018-03-06T18:05:07.719Z,98915.88
2018-03-06T18:10:08.267Z,98919.38
2018-03-06T18:12:34.597Z,98922.12
2018-03-06T18:15:00.756Z,98920.53
2018-03-06T18:17:26.973Z,98928.14
2018-03-06T18:19:53.494Z,98921.36
2018-03-06T18:22:19.722Z,98918.92
2018-03-06T18:24:45.928Z,98923.00
2018-03-06T18:27:12.089Z,98927.94
2018-03-06T18:29:38.336Z,98931.92
2018-03-06T18:32:04.493Z,98930.33
2018-03-06T18:34:30.655Z,98935.72
2018-03-06T18:36:56.845Z,98927.64
2018-03-06T18:39:23.053Z,98933.42
2018-03-06T18:41:49.274Z,98932.20
2018-03-06T18:44:15.506Z,98922.24
2018-03-06T18:46:41.675Z,98931.52
2018-03-06T18:49:07.941Z,98919.35
2018-03-06T18:51:34.203Z,98919.90
2018-03-06T18:54:00.528Z,98919.56
2018-03-06T18:56:26.692Z,98928.86
2018-03-06T18:58:52.955Z,98925.09
2018-03-06T19:04:48.096Z,98919.22
2018-03-06T19:07:14.334Z,98927.67
2018-03-06T19:09:40.596Z,98921.75
2018-03-06T19:12:06.861Z,98918.83
2018-03-06T19:14:33.352Z,98920.70
2018-03-06T19:16:59.599Z,98923.47
2018-03-06T19:19:25.931Z,98920.63
2018-03-06T19:21:52.120Z,98919.55
2018-03-06T19:24:18.448Z,98921.48
2018-03-06T19:26:44.649Z,98925.16
2018-03-06T19:29:10.898Z,98920.63
2018-03-06T19:31:37.104Z,98923.52
2018-03-06T19:34:03.350Z,98916.33
2018-03-06T19:36:29.548Z,98916.59
2018-03-06T19:38:55.800Z,98920.72
2018-03-06T19:41:22.017Z,98916.22
2018-03-06T19:43:48.222Z,98914.19
2018-03-06T19:46:14.441Z,98916.55
2018-03-06T19:48:40.678Z,98925.41
2018-03-06T19:51:06.888Z,98917.27
2018-03-06T19:53:33.049Z,98924.77
2018-03-06T19:55:59.316Z,98925.75
2018-03-06T19:58:25.478Z,98922.84
2018-03-06T20:00:51.684Z,98925.55
2018-03-06T20:03:17.858Z,98923.06
2018-03-06T20:05:44.037Z,98925.78
2018-03-06T20:08:10.243Z,98930.17
2018-03-06T20:10:36.765Z,98930.27
2018-03-06T20:13:02.933Z,98928.65
2018-03-06T20:15:29.167Z,98926.13
2018-03-06T20:17:55.366Z,98931.84
2018-03-06T20:20:21.845Z,98927.56
2018-03-06T20:22:48.034Z,98941.52
2018-03-06T20:27:57.406Z,98948.08
2018-03-06T20:30:29.624Z,98949.39
2018-03-06T20:33:11.600Z,98947.27
2018-03-06T20:35:37.804Z,98946.84
2018-03-06T20:38:03.992Z,98948.19
2018-03-06T20:40:33.183Z,98948.21
2018-03-06T20:42:59.394Z,98948.25
2018-03-06T20:45:25.634Z,98950.88
2018-03-06T20:47:51.834Z,98951.34
2018-03-06T20:50:18.060Z,98948.34
2018-03-06T20:52:50.435Z,98951.45
2018-03-06T20:55:16.600Z,98950.16
2018-03-06T20:57:42.794Z,98949.77
2018-03-06T21:00:08.992Z,98947.59
2018-03-06T21:02:35.201Z,98947.17
2018-03-06T21:05:01.517Z,98952.38
2018-03-06T21:07:27.811Z,98947.61
2018-03-06T21:09:54.037Z,98955.88
2018-03-06T21:12:20.215Z,98957.20
2018-03-06T21:14:46.393Z,98958.97
2018-03-06T21:17:12.590Z,98954.25
2018-03-06T21:19:38.804Z,98958.19
2018-03-06T21:22:04.949Z,98953.50
2018-03-06T21:24:31.246Z,98954.42
2018-03-06T21:26:57.474Z,98949.69
2018-03-06T21:29:23.618Z,98949.75
2018-03-06T21:31:49.906Z,98944.59
2018-03-06T21:34:16.062Z,98944.61
2018-03-06T21:36:42.221Z,98949.83
2018-03-06T21:39:08.473Z,98947.23
2018-03-06T21:41:34.676Z,98940.32
2018-03-06T21:44:00.856Z,98940.80
2018-03-06T21:46:27.033Z,98939.49
2018-03-06T21:48:53.167Z,98941.27
2018-03-06T21:51:19.375Z,98945.22
2018-03-06T21:53:45.637Z,98940.89
2018-03-06T21:56:11.812Z,98945.26
2018-03-06T21:58:38.069Z,98944.82
2018-03-06T22:01:04.315Z,98949.59
2018-03-06T22:03:30.468Z,98947.04
2018-03-06T22:05:56.616Z,98949.69
2018-03-06T22:08:22.822Z,98954.47
2018-03-06T22:10:49.063Z,98963.59
2018-03-06T22:13:15.257Z,98960.16
2018-03-06T22:15:41.429Z,98968.42
2018-03-06T22:18:07.671Z,98968.88
2018-03-06T22:20:33.907Z,98974.06
2018-03-06T22:23:00.163Z,98976.69
2018-03-06T22:25:26.395Z,98971.06
2018-03-06T22:27:52.585Z,98969.33
2018-03-06T22:30:18.830Z,98970.65
2018-03-06T22:32:45.072Z,98968.90
2018-03-06T22:35:11.263Z,98973.26
2018-03-06T22:37:37.473Z,98976.28
2018-03-06T22:40:03.718Z,98971.59
2018-03-06T22:42:29.960Z,98969.01
2018-03-06T22:44:56.360Z,98969.45
2018-03-06T22:47:22.534Z,98966.02
2018-03-06T22:49:48.736Z,98962.95
2018-03-06T22:52:14.946Z,98962.11
2018-03-06T22:54:41.226Z,98959.52
2018-03-06T22:57:07.481Z,98962.52
2018-03-06T22:59:33.707Z,98959.09
2018-03-06T23:01:59.924Z,98951.73
2018-03-06T23:04:26.086Z,98951.30
2018-03-06T23:06:52.268Z,98951.32
2018-03-06T23:09:18.463Z,98955.64
2018-03-06T23:11:44.666Z,98951.73
2018-03-06T23:14:10.958Z,98951.75
2018-03-06T23:16:37.313Z,98955.66
2018-03-06T23:19:03.551Z,98959.14
2018-03-06T23:21:29.819Z,98955.66
2018-03-06T23:23:56.041Z,98954.82
2018-03-06T23:26:22.191Z,98956.14
2018-03-06T23:28:48.369Z,98960.00
2018-03-06T23:31:14.639Z,98958.25
2018-03-06T23:33:40.796Z,98969.53
2018-03-06T23:36:06.957Z,98964.80
2018-03-06T23:38:33.296Z,98960.05
2018-03-06T23:41:02.174Z,98965.72
2018-03-06T23:43:28.337Z,98964.89
2018-03-06T23:45:54.561Z,98963.18
2018-03-06T23:48:20.709Z,98960.60
2018-03-06T23:50:46.969Z,98957.19
2018-03-06T23:53:13.142Z,98954.60
2018-03-06T23:55:39.319Z,98950.29
2018-03-06T23:58:05.528Z,98953.37
